This is the latest recevied weather packets stored in our database for station/object OM8AGG-10. If no packets are shown the sender has not sent any weather packets the latest 10 day(s).
| Time | Temp. | Humidity | Pressure | Rain* | Wind** | Luminosity | Snow |
|---|---|---|---|---|---|---|---|
| 1777771179 | 1.67° C | 94% | 1024.6 hPa | - | - | - | - |
| 1777770280 | 1.67° C | 92% | 1024.5 hPa | - | - | - | - |
| 1777769379 | 1.67° C | 93% | 1024.6 hPa | - | - | - | - |
| 1777768479 | 1.67° C | 91% | 1024.5 hPa | - | - | - | - |
| 1777767578 | 2.78° C | 87% | 1024.5 hPa | - | - | - | - |
| 1777766678 | 3.33° C | 83% | 1024.3 hPa | - | - | - | - |
| 1777764878 | 5° C | 77% | 1024.5 hPa | - | - | - | - |
| 1777763978 | 5° C | 75% | 1024.4 hPa | - | - | - | - |
| 1777763078 | 5° C | 76% | 1024.6 hPa | - | - | - | - |
| 1777762178 | 5.56° C | 74% | 1024.4 hPa | - | - | - | - |
| 1777760378 | 5.56° C | 73% | 1024.6 hPa | - | - | - | - |
| 1777759478 | 5.56° C | 73% | 1024.6 hPa | - | - | - | - |
| 1777757678 | 4.44° C | 81% | 1024.5 hPa | - | - | - | - |
| 1777756778 | 5.56° C | 76% | 1024.3 hPa | - | - | - | - |
| 1777755877 | 6.11° C | 73% | 1024.3 hPa | - | - | - | - |
| 1777754977 | 7.22° C | 66% | 1024.2 hPa | - | - | - | - |
| 1777754077 | 7.78° C | 64% | 1024.2 hPa | - | - | - | - |
| 1777753177 | 8.33° C | 61% | 1024.2 hPa | - | - | - | - |
| 1777752277 | 8.33° C | 60% | 1024 hPa | - | - | - | - |
| 1777750477 | 10° C | 55% | 1023.7 hPa | - | - | - | - |
| 1777749577 | 10° C | 56% | 1023.7 hPa | - | - | - | - |
| 1777748677 | 10.56° C | 55% | 1023.5 hPa | - | - | - | - |
| 1777747777 | 11.11° C | 51% | 1023.3 hPa | - | - | - | - |
| 1777746877 | 11.67° C | 48% | 1023.1 hPa | - | - | - | - |
| 1777745977 | 12.22° C | 46% | 1023 hPa | - | - | - | - |
* Rain since midnight (hover to see other rain measurements)
** Current wind speed in m/s (hover to see current wind gust speed)